Time;durP1;ratioP1;P1;durP2;ratioP2;P2;SDS_P1;SDS_P2;PMS_P1;PMS_P2;Temp;Humidity;BMP_temperature;BMP_pressure;BME280_temperature;BME280_humidity;BME280_pressure;Samples;Min_cycle;Max_cycle;Signal;HPM_P1;HPM_P2
2023/04/14 00:02:03;;;;;;;11.30;1.70;;;15.20;99.90;;;;;;5030334;28;20021;-70
2023/04/14 00:04:30;;;;;;;9.87;1.60;;;15.10;99.90;;;;;;5031155;28;20028;-69
2023/04/14 00:06:57;;;;;;;15.50;1.92;;;15.00;99.90;;;;;;5030626;28;20409;-68
2023/04/14 00:09:25;;;;;;;9.38;1.63;;;15.10;99.90;;;;;;5031006;28;20093;-68
2023/04/14 00:11:51;;;;;;;8.70;1.73;;;15.10;99.90;;;;;;5030370;28;20049;-69
2023/04/14 00:14:17;;;;;;;8.40;1.92;;;15.10;99.90;;;;;;5030648;28;20029;-69
2023/04/14 00:16:45;;;;;;;11.23;2.05;;;15.10;99.90;;;;;;5030314;28;20022;-68
2023/04/14 00:19:11;;;;;;;11.68;1.98;;;15.10;99.90;;;;;;5030377;28;20072;-68
2023/04/14 00:21:37;;;;;;;11.68;1.90;;;14.90;99.90;;;;;;5030424;28;20064;-68
2023/04/14 00:24:03;;;;;;;11.40;1.67;;;14.80;99.90;;;;;;5030840;28;20045;-69
2023/04/14 00:26:32;;;;;;;11.13;1.90;;;14.90;99.90;;;;;;5030539;28;20029;-68
2023/04/14 00:28:58;;;;;;;9.85;1.60;;;14.90;99.90;;;;;;5030496;28;20736;-69
2023/04/14 00:31:24;;;;;;;10.73;1.50;;;14.80;99.90;;;;;;5030429;28;20029;-69
2023/04/14 00:33:50;;;;;;;11.90;1.90;;;14.80;99.90;;;;;;5030716;28;20026;-69
2023/04/14 00:36:16;;;;;;;7.17;1.20;;;14.70;99.90;;;;;;5030407;28;20323;-68
2023/04/14 00:38:42;;;;;;;12.27;1.63;;;14.60;99.90;;;;;;5030421;28;20022;-68
2023/04/14 00:41:08;;;;;;;7.40;1.30;;;14.60;99.90;;;;;;5030030;28;20017;-68
2023/04/14 00:43:34;;;;;;;10.30;1.50;;;14.50;99.90;;;;;;5030295;28;20100;-69
2023/04/14 00:46:01;;;;;;;6.68;1.05;;;14.40;99.90;;;;;;5030097;28;20111;-69
2023/04/14 00:48:28;;;;;;;16.65;1.75;;;14.40;99.90;;;;;;5030359;28;20021;-68
2023/04/14 00:50:53;;;;;;;;;;;14.40;99.90;;;;;;5030800;28;20025;-69
2023/04/14 00:53:20;;;;;;;10.20;1.40;;;14.30;99.90;;;;;;5030103;28;20234;-69
2023/04/14 00:55:46;;;;;;;12.32;1.58;;;14.30;99.90;;;;;;5012054;28;20351;-67
2023/04/14 00:58:15;;;;;;;7.68;1.30;;;14.20;99.90;;;;;;5030193;28;20053;-68
2023/04/14 01:00:41;;;;;;;14.57;1.60;;;14.30;99.90;;;;;;5030170;28;20029;-69
2023/04/14 01:03:07;;;;;;;9.82;1.35;;;14.30;99.90;;;;;;5030004;28;20021;-68
2023/04/14 01:05:33;;;;;;;14.53;1.80;;;14.30;99.90;;;;;;5029948;28;20032;-68
2023/04/14 01:08:01;;;;;;;10.90;1.83;;;14.30;99.90;;;;;;5030074;28;20041;-69
2023/04/14 01:10:33;;;;;;;11.25;1.65;;;14.30;99.90;;;;;;5012003;28;20046;-68
2023/04/14 01:13:32;;;;;;;8.88;1.67;;;14.30;99.90;;;;;;5033548;28;20029;-68
2023/04/14 01:16:03;;;;;;;9.75;1.58;;;14.20;99.90;;;;;;4998575;28;20388;-68
2023/04/14 01:18:48;;;;;;;7.80;1.27;;;14.20;99.90;;;;;;5034201;28;20442;-69
2023/04/14 01:21:27;;;;;;;7.80;1.30;;;14.00;99.90;;;;;;5034213;28;20025;-69
2023/04/14 01:24:24;;;;;;;11.02;1.50;;;13.90;99.90;;;;;;5033936;28;20052;-68
2023/04/14 01:27:05;;;;;;;8.07;1.60;;;13.80;99.90;;;;;;5015796;28;20107;-68
2023/04/14 01:30:00;;;;;;;10.13;1.45;;;13.80;99.90;;;;;;5033934;28;20030;-69
2023/04/14 01:32:30;;;;;;;7.25;1.27;;;13.60;99.90;;;;;;5033244;28;20462;-68
2023/04/14 01:35:06;;;;;;;9.70;1.45;;;13.70;99.90;;;;;;5033895;28;20095;-68
2023/04/14 01:37:39;;;;;;;17.05;1.80;;;13.60;99.90;;;;;;5033644;28;20547;-69
2023/04/14 01:40:13;;;;;;;10.13;1.52;;;13.50;99.90;;;;;;5033589;28;20022;-68
2023/04/14 01:42:45;;;;;;;9.95;1.45;;;13.40;99.90;;;;;;5033255;28;20480;-68
2023/04/14 01:45:24;;;;;;;13.02;1.95;;;13.40;99.90;;;;;;5033571;28;20115;-64
2023/04/14 01:47:51;;;;;;;9.50;1.55;;;13.40;99.90;;;;;;5033299;28;20036;-68
2023/04/14 01:50:19;;;;;;;5.68;1.30;;;13.30;99.90;;;;;;5033149;28;20048;-68
2023/04/14 01:52:51;;;;;;;13.55;2.15;;;13.30;99.90;;;;;;5033212;28;20041;-69
2023/04/14 01:55:19;;;;;;;9.93;2.20;;;13.20;99.90;;;;;;5033237;28;20025;-69
2023/04/14 01:57:52;;;;;;;10.32;1.45;;;13.20;99.90;;;;;;5033057;28;20056;-69
2023/04/14 02:00:20;;;;;;;13.00;1.80;;;13.10;99.90;;;;;;5033262;28;20033;-69
2023/04/14 02:02:50;;;;;;;13.18;1.98;;;13.10;99.90;;;;;;5033130;28;20097;-70
2023/04/14 02:05:18;;;;;;;10.40;1.50;;;13.10;99.90;;;;;;5033185;28;20533;-69
2023/04/14 02:07:50;;;;;;;8.43;1.70;;;13.20;99.90;;;;;;5032815;28;20477;-68
2023/04/14 02:10:19;;;;;;;12.70;1.50;;;13.20;99.90;;;;;;5032584;28;20028;-68
2023/04/14 02:12:47;;;;;;;18.77;2.15;;;13.20;99.90;;;;;;5032755;28;20038;-69
2023/04/14 02:15:16;;;;;;;10.55;1.45;;;13.10;99.90;;;;;;5033180;28;20057;-68
2023/04/14 02:17:45;;;;;;;11.60;1.88;;;13.10;99.90;;;;;;5032500;28;20033;-70
2023/04/14 02:20:16;;;;;;;14.75;1.85;;;13.10;99.90;;;;;;5032770;28;20056;-68
2023/04/14 02:22:42;;;;;;;10.75;1.85;;;13.10;99.90;;;;;;5032449;28;20021;-69
2023/04/14 02:25:09;;;;;;;13.45;1.60;;;13.00;99.90;;;;;;5032769;28;20327;-69
2023/04/14 02:27:48;;;;;;;15.23;1.88;;;13.00;99.90;;;;;;5032826;28;20025;-68
2023/04/14 02:30:26;;;;;;;14.38;2.00;;;13.00;99.90;;;;;;5032655;28;20501;-69
2023/04/14 02:32:59;;;;;;;11.18;1.52;;;13.00;99.90;;;;;;5032427;28;20086;-68
2023/04/14 02:35:27;;;;;;;15.68;1.98;;;13.00;99.90;;;;;;5015035;28;20040;-69
2023/04/14 02:38:02;;;;;;;9.88;1.75;;;13.10;99.90;;;;;;5032229;28;20056;-69
2023/04/14 02:40:35;;;;;;;12.25;1.50;;;13.00;99.90;;;;;;5032578;28;20109;-68
2023/04/14 02:43:10;;;;;;;9.43;1.40;;;12.80;99.90;;;;;;5032360;28;20064;-69
2023/04/14 02:45:40;;;;;;;11.32;1.90;;;12.70;99.90;;;;;;5032150;28;20469;-69
2023/04/14 02:48:12;;;;;;;15.20;1.80;;;12.70;99.90;;;;;;5031988;28;20469;-69
2023/04/14 02:50:44;;;;;;;12.35;1.77;;;12.60;99.90;;;;;;5014279;28;20030;-69
2023/04/14 02:53:12;;;;;;;12.00;1.73;;;12.60;99.90;;;;;;5031837;28;20101;-69
2023/04/14 02:55:38;;;;;;;14.68;2.13;;;12.70;99.90;;;;;;5031916;28;20021;-69
2023/04/14 02:58:05;;;;;;;10.75;1.75;;;12.70;99.90;;;;;;5032301;28;20418;-69
2023/04/14 03:00:32;;;;;;;12.60;1.95;;;12.70;99.90;;;;;;5032224;28;20044;-69
2023/04/14 03:03:00;;;;;;;17.80;2.28;;;12.70;99.90;;;;;;5031783;28;20025;-68
2023/04/14 03:05:26;;;;;;;12.00;1.83;;;12.70;99.90;;;;;;5013988;28;20044;-69
2023/04/14 03:07:54;;;;;;;14.80;1.63;;;12.70;99.90;;;;;;5032363;28;20052;-69
2023/04/14 03:10:22;;;;;;;9.82;1.63;;;12.60;99.90;;;;;;5032168;28;20068;-68
2023/04/14 03:12:49;;;;;;;10.90;1.58;;;12.60;99.90;;;;;;5032280;28;20037;-68
2023/04/14 03:15:17;;;;;;;11.23;1.40;;;12.60;99.90;;;;;;5032110;28;20036;-68
2023/04/14 03:17:46;;;;;;;10.02;1.48;;;12.60;99.90;;;;;;5031963;28;20057;-68
2023/04/14 03:20:18;;;;;;;8.35;1.30;;;12.60;99.90;;;;;;5032249;28;20025;-69
2023/04/14 03:22:47;;;;;;;13.02;1.70;;;12.60;99.90;;;;;;5032841;28;20122;-69
2023/04/14 03:25:14;;;;;;;15.48;1.77;;;12.50;99.90;;;;;;5032218;28;20102;-71
2023/04/14 03:27:43;;;;;;;7.28;1.25;;;12.40;99.90;;;;;;5032121;28;20124;-69
2023/04/14 03:30:12;;;;;;;9.88;1.50;;;12.40;99.90;;;;;;5032588;28;20025;-69
2023/04/14 03:32:41;;;;;;;14.90;1.80;;;12.30;99.90;;;;;;5032308;28;20029;-68
2023/04/14 03:35:08;;;;;;;10.02;1.40;;;12.30;99.90;;;;;;5031767;28;20083;-69
2023/04/14 03:37:38;;;;;;;12.23;1.80;;;12.30;99.90;;;;;;5032408;28;20544;-69
2023/04/14 03:40:07;;;;;;;12.65;1.50;;;12.30;99.90;;;;;;5032517;28;20021;-67
2023/04/14 03:42:35;;;;;;;18.00;1.50;;;12.20;99.90;;;;;;5031974;28;20036;-69
2023/04/14 03:45:02;;;;;;;12.70;2.13;;;12.20;99.90;;;;;;5032788;28;20022;-69
2023/04/14 03:47:30;;;;;;;9.07;1.45;;;12.20;99.90;;;;;;5032004;28;20026;-68
2023/04/14 03:50:01;;;;;;;9.85;1.63;;;12.20;99.90;;;;;;5014301;28;20564;-68
2023/04/14 03:52:35;;;;;;;13.10;1.70;;;12.30;99.90;;;;;;5031838;28;20037;-68
2023/04/14 03:55:05;;;;;;;16.80;1.88;;;12.30;99.90;;;;;;5031817;28;20017;-68
2023/04/14 03:57:32;;;;;;;7.97;1.60;;;12.40;99.90;;;;;;5032357;28;20048;-68
2023/04/14 04:00:04;;;;;;;13.25;1.60;;;12.40;99.90;;;;;;5031840;28;20102;-69
2023/04/14 04:02:30;;;;;;;10.25;1.83;;;12.40;99.90;;;;;;5031603;28;20033;-69
2023/04/14 04:04:58;;;;;;;9.55;1.50;;;12.40;99.90;;;;;;5031836;28;20391;-67
2023/04/14 04:07:25;;;;;;;9.10;1.40;;;12.30;99.90;;;;;;5031796;28;20450;-68
2023/04/14 04:09:52;;;;;;;12.55;1.50;;;12.40;99.90;;;;;;5031683;28;20438;-68
2023/04/14 04:12:19;;;;;;;;;;;12.40;99.90;;;;;;5024814;28;20079;-67
2023/04/14 04:14:45;;;;;;;15.65;2.05;;;12.40;99.90;;;;;;5029500;28;19905;-67
2023/04/14 04:17:17;;;;;;;11.90;1.87;;;12.40;99.90;;;;;;5031312;28;20032;-68
2023/04/14 04:19:44;;;;;;;10.30;1.63;;;12.30;99.90;;;;;;5032621;28;20707;-68
2023/04/14 04:22:13;;;;;;;15.32;1.67;;;12.30;99.90;;;;;;5032461;28;20100;-68
2023/04/14 04:24:41;;;;;;;12.57;1.70;;;12.30;99.90;;;;;;5032396;28;20029;-69
2023/04/14 04:27:08;;;;;;;8.73;1.88;;;12.30;99.90;;;;;;5032019;28;20473;-69
2023/04/14 04:29:35;;;;;;;8.32;1.50;;;12.30;99.90;;;;;;5032435;28;20072;-66
2023/04/14 04:32:01;;;;;;;;;;;12.30;99.90;;;;;;5032224;28;20026;-67
2023/04/14 04:34:31;;;;;;;11.35;1.80;;;12.30;99.90;;;;;;5031988;28;20038;-67
2023/04/14 04:37:02;;;;;;;14.85;1.65;;;12.30;99.90;;;;;;5031848;28;20064;-68
2023/04/14 04:39:31;;;;;;;13.48;2.00;;;12.30;99.90;;;;;;5032162;28;20026;-69
2023/04/14 04:42:06;;;;;;;11.00;1.63;;;12.30;99.90;;;;;;5031268;28;20413;-67
2023/04/14 04:44:34;;;;;;;6.40;1.20;;;12.30;99.90;;;;;;5031841;28;20022;-67
2023/04/14 04:47:01;;;;;;;9.73;2.22;;;12.30;99.90;;;;;;5033581;28;20036;-69
2023/04/14 04:49:26;;;;;;;;;;;12.30;99.90;;;;;;5036408;28;20426;-69
2023/04/14 04:51:55;;;;;;;8.48;1.45;;;12.30;99.90;;;;;;5036008;28;19919;-65
2023/04/14 04:54:22;;;;;;;9.90;1.55;;;12.30;99.90;;;;;;5018136;28;20499;-69
2023/04/14 04:56:48;;;;;;;12.80;1.90;;;12.20;99.90;;;;;;5035668;28;20025;-68
2023/04/14 04:59:14;;;;;;;10.80;2.00;;;12.30;99.90;;;;;;5036188;28;20025;-67
2023/04/14 05:01:41;;;;;;;10.68;1.95;;;12.10;99.90;;;;;;5034855;28;20076;-66
2023/04/14 05:04:07;;;;;;;7.68;1.20;;;12.30;99.90;;;;;;5029185;28;20469;-68
2023/04/14 05:06:36;;;;;;;10.90;1.85;;;12.20;99.90;;;;;;5034314;28;20095;-68
2023/04/14 05:09:03;;;;;;;13.63;1.75;;;12.20;99.90;;;;;;5033383;28;20099;-68
2023/04/14 05:11:30;;;;;;;12.07;1.70;;;12.10;99.90;;;;;;5034819;28;20042;-68
2023/04/14 05:13:56;;;;;;;;;;;11.90;99.90;;;;;;5035665;28;20080;-69
2023/04/14 05:16:22;;;;;;;13.00;1.75;;;11.90;99.90;;;;;;5017233;28;19945;-69
2023/04/14 05:18:48;;;;;;;6.35;1.63;;;11.80;99.90;;;;;;5035318;28;20505;-69
2023/04/14 05:21:15;;;;;;;15.10;1.58;;;12.10;99.90;;;;;;5035182;28;20022;-70
2023/04/14 05:23:43;;;;;;;11.40;2.20;;;12.30;99.90;;;;;;5035682;28;20033;-70
2023/04/14 05:26:14;;;;;;;12.88;1.60;;;12.30;99.90;;;;;;5035143;28;20462;-69
2023/04/14 05:28:40;;;;;;;12.88;1.60;;;12.40;99.90;;;;;;5034636;28;20025;-70
2023/04/14 05:31:07;;;;;;;13.20;1.58;;;12.70;99.90;;;;;;5034306;28;20032;-68
2023/04/14 05:33:34;;;;;;;13.02;1.63;;;12.90;99.90;;;;;;5016328;28;20495;-71
2023/04/14 05:36:00;;;;;;;;;;;13.00;99.90;;;;;;5033822;28;20377;-69
2023/04/14 05:38:26;;;;;;;13.27;2.97;;;13.00;99.90;;;;;;5034536;28;19904;-69
2023/04/14 05:40:53;;;;;;;8.63;1.83;;;13.50;99.90;;;;;;5034064;28;20128;-71
2023/04/14 05:43:19;;;;;;;8.98;2.10;;;13.30;99.90;;;;;;5034110;28;20470;-71
2023/04/14 05:45:47;;;;;;;11.98;1.80;;;13.40;99.90;;;;;;5033567;28;20030;-68
2023/04/14 05:48:15;;;;;;;10.48;1.88;;;13.60;99.90;;;;;;5031268;28;20390;-70
2023/04/14 05:50:41;;;;;;;11.32;1.92;;;13.60;99.90;;;;;;5033805;28;20032;-70
2023/04/14 05:53:08;;;;;;;9.60;2.13;;;13.70;99.90;;;;;;5033369;28;20076;-69
2023/04/14 05:55:34;;;;;;;13.82;1.90;;;13.70;99.90;;;;;;5033662;28;20025;-68
2023/04/14 05:58:00;;;;;;;15.87;1.87;;;13.60;99.90;;;;;;5032351;28;20254;-69
2023/04/14 06:00:26;;;;;;;18.17;1.85;;;13.60;99.90;;;;;;5015294;28;20304;-67
2023/04/14 06:02:52;;;;;;;12.40;1.98;;;13.40;99.90;;;;;;5032973;28;20034;-67
2023/04/14 06:05:18;;;;;;;11.93;1.90;;;13.50;99.90;;;;;;5015587;28;20068;-67
2023/04/14 06:07:45;;;;;;;11.90;2.20;;;13.80;99.90;;;;;;5033476;28;20053;-67
2023/04/14 06:10:12;;;;;;;16.85;1.75;;;14.10;99.90;;;;;;5017061;28;20353;-69
2023/04/14 06:12:38;;;;;;;9.40;1.65;;;14.20;99.90;;;;;;5031412;28;20038;-66
2023/04/14 06:15:04;;;;;;;12.93;1.90;;;14.50;99.90;;;;;;5032520;28;20048;-68
2023/04/14 06:17:31;;;;;;;9.38;2.05;;;14.70;99.90;;;;;;5032836;28;20025;-68
2023/04/14 06:19:57;;;;;;;;;;;15.10;99.90;;;;;;5031673;28;20091;-67
2023/04/14 06:22:28;;;;;;;10.77;1.83;;;15.40;99.90;;;;;;5032844;28;20333;-67
2023/04/14 06:24:56;;;;;;;15.95;1.52;;;15.40;99.90;;;;;;5032720;28;20040;-68
2023/04/14 06:27:25;;;;;;;14.15;1.70;;;15.40;99.90;;;;;;5032946;28;20029;-65
2023/04/14 06:29:52;;;;;;;13.43;2.10;;;15.80;99.90;;;;;;5032956;28;20021;-70
2023/04/14 06:32:18;;;;;;;7.95;1.63;;;16.30;99.90;;;;;;5032627;28;20038;-67
2023/04/14 06:34:46;;;;;;;11.10;1.48;;;16.40;99.90;;;;;;5032833;28;20029;-66
2023/04/14 06:37:13;;;;;;;14.77;2.35;;;16.60;99.90;;;;;;5014636;28;20076;-68
2023/04/14 06:39:39;;;;;;;12.77;2.10;;;16.60;99.90;;;;;;5032671;28;20040;-66
2023/04/14 06:42:05;;;;;;;13.30;1.92;;;16.60;99.90;;;;;;5032373;28;20021;-68
2023/04/14 06:44:31;;;;;;;14.20;2.15;;;16.80;99.90;;;;;;5032734;28;20084;-67
2023/04/14 06:46:58;;;;;;;11.98;2.13;;;16.80;99.90;;;;;;5032696;28;20026;-70
2023/04/14 06:49:24;;;;;;;11.40;2.83;;;17.60;99.90;;;;;;5014523;28;20198;-68
2023/04/14 06:51:50;;;;;;;16.20;2.83;;;17.90;99.90;;;;;;5032546;28;20139;-68
2023/04/14 06:54:16;;;;;;;11.80;2.65;;;18.20;99.90;;;;;;5032262;28;20115;-68
2023/04/14 06:56:42;;;;;;;8.77;2.20;;;18.40;99.90;;;;;;5032019;28;20381;-69
2023/04/14 06:59:08;;;;;;;16.35;3.35;;;19.20;99.90;;;;;;5032512;28;20457;-68
2023/04/14 07:01:34;;;;;;;9.73;2.70;;;19.80;99.90;;;;;;5032326;28;20449;-72
2023/04/14 07:04:03;;;;;;;12.63;2.85;;;20.10;99.90;;;;;;5032303;28;20473;-67
2023/04/14 07:06:30;;;;;;;8.90;2.53;;;21.30;99.90;;;;;;5014193;28;20130;-67
2023/04/14 07:08:56;;;;;;;11.93;3.30;;;21.50;99.90;;;;;;5031870;28;20029;-67
2023/04/14 07:11:22;;;;;;;13.20;3.10;;;21.60;99.90;;;;;;5013718;28;20057;-67
2023/04/14 07:13:48;;;;;;;10.77;3.10;;;22.00;99.90;;;;;;5032311;28;20125;-67
2023/04/14 07:16:14;;;;;;;9.88;2.88;;;22.20;99.90;;;;;;5032021;28;20044;-67
2023/04/14 07:18:41;;;;;;;13.13;3.40;;;22.80;99.90;;;;;;5032135;28;20087;-69
2023/04/14 07:21:07;;;;;;;;;;;23.00;99.90;;;;;;5032636;28;20040;-65
2023/04/14 07:23:33;;;;;;;14.52;2.83;;;21.90;99.90;;;;;;5031927;28;19905;-67
2023/04/14 07:25:59;;;;;;;14.18;2.33;;;21.70;99.90;;;;;;5032168;28;20029;-67
2023/04/14 07:28:26;;;;;;;;;;;21.20;99.90;;;;;;5032305;28;20093;-68
2023/04/14 07:30:53;;;;;;;16.30;2.70;;;21.30;99.90;;;;;;5032019;28;19995;-66
2023/04/14 07:33:21;;;;;;;12.65;2.22;;;21.50;99.90;;;;;;5031661;28;20041;-67
2023/04/14 07:35:51;;;;;;;13.02;2.50;;;21.00;99.90;;;;;;5031824;28;20108;-66
2023/04/14 07:38:18;;;;;;;16.80;2.22;;;21.10;99.90;;;;;;5014285;28;20082;-68
2023/04/14 07:40:44;;;;;;;10.52;2.28;;;21.30;99.90;;;;;;5032070;28;20029;-68
2023/04/14 07:43:11;;;;;;;17.48;2.35;;;21.60;99.90;;;;;;5031887;28;20079;-67
2023/04/14 07:45:38;;;;;;;11.45;1.92;;;20.70;99.90;;;;;;5031801;28;20456;-68
2023/04/14 07:48:04;;;;;;;13.30;2.10;;;20.60;99.90;;;;;;5031490;28;20086;-67
2023/04/14 07:50:30;;;;;;;12.52;2.13;;;20.90;99.90;;;;;;5013667;28;20022;-68
2023/04/14 07:52:58;;;;;;;10.45;3.10;;;19.90;99.90;;;;;;5031482;28;20167;-68
2023/04/14 07:55:25;;;;;;;10.00;1.88;;;19.40;99.90;;;;;;5031959;28;20406;-66
2023/04/14 07:57:52;;;;;;;14.65;2.05;;;19.20;99.90;;;;;;5031399;28;20033;-68
2023/04/14 08:00:18;;;;;;;13.23;2.22;;;18.80;99.90;;;;;;5031604;28;20021;-68
2023/04/14 08:02:44;;;;;;;13.27;2.35;;;19.10;99.90;;;;;;5031347;28;20045;-66
2023/04/14 08:05:10;;;;;;;9.65;1.75;;;19.70;99.90;;;;;;5031521;28;20040;-68
2023/04/14 08:07:37;;;;;;;8.60;1.70;;;19.90;99.90;;;;;;5031248;28;20033;-67
2023/04/14 08:10:03;;;;;;;7.45;1.83;;;20.20;99.90;;;;;;5031092;28;20017;-69
2023/04/14 08:12:30;;;;;;;12.07;2.40;;;20.00;99.90;;;;;;5030920;28;20065;-69
2023/04/14 08:14:56;;;;;;;10.82;2.22;;;20.00;99.90;;;;;;5031023;28;20029;-69
2023/04/14 08:17:23;;;;;;;10.65;2.10;;;20.10;99.90;;;;;;5031068;28;20033;-69
2023/04/14 08:19:49;;;;;;;6.57;1.42;;;19.40;99.90;;;;;;5031325;28;20022;-70
2023/04/14 08:22:15;;;;;;;13.18;2.53;;;19.60;99.90;;;;;;5030586;28;20022;-68
2023/04/14 08:24:41;;;;;;;7.95;2.13;;;20.30;99.90;;;;;;5031321;28;20025;-68
2023/04/14 08:27:07;;;;;;;6.20;1.70;;;20.40;99.90;;;;;;5012937;28;20021;-68
2023/04/14 08:29:33;;;;;;;12.77;3.75;;;20.10;99.90;;;;;;5030805;28;20545;-69
2023/04/14 08:31:59;;;;;;;16.77;2.10;;;19.50;99.90;;;;;;5030584;28;20355;-67
2023/04/14 08:34:26;;;;;;;11.48;1.98;;;19.10;99.90;;;;;;5030738;28;20026;-68
2023/04/14 08:36:51;;;;;;;11.98;1.90;;;19.70;99.90;;;;;;5030924;28;20072;-68
2023/04/14 08:39:18;;;;;;;23.98;2.17;;;19.70;99.90;;;;;;5031037;28;20097;-68
2023/04/14 08:41:44;;;;;;;12.68;1.92;;;19.90;99.90;;;;;;5030666;28;20204;-69
2023/04/14 08:44:10;;;;;;;11.30;1.80;;;19.80;99.90;;;;;;5030795;28;20102;-69
2023/04/14 08:46:36;;;;;;;12.48;2.47;;;19.90;99.90;;;;;;5030308;28;20029;-67
2023/04/14 08:49:04;;;;;;;14.32;2.45;;;19.60;99.90;;;;;;5030313;28;20029;-69
2023/04/14 08:51:31;;;;;;;15.70;2.17;;;19.90;99.90;;;;;;5031138;28;20307;-70
2023/04/14 08:53:59;;;;;;;12.90;2.30;;;20.00;99.90;;;;;;5030943;28;20102;-70
2023/04/14 08:56:30;;;;;;;11.93;2.10;;;19.90;99.90;;;;;;5030889;28;20049;-68
2023/04/14 08:58:57;;;;;;;15.93;2.90;;;20.00;99.90;;;;;;5031206;28;20089;-69
2023/04/14 09:01:24;;;;;;;11.95;2.20;;;20.10;99.90;;;;;;5030964;28;20433;-69
2023/04/14 09:03:51;;;;;;;15.35;1.83;;;20.30;99.90;;;;;;5030794;28;20045;-69
2023/04/14 09:06:17;;;;;;;15.80;2.25;;;20.20;99.90;;;;;;5030869;28;20101;-68
2023/04/14 09:08:44;;;;;;;15.60;2.25;;;20.20;99.90;;;;;;5030905;28;20148;-68
2023/04/14 09:11:10;;;;;;;17.88;2.90;;;20.10;99.90;;;;;;5012573;28;20453;-69
2023/04/14 09:13:38;;;;;;;13.55;2.08;;;20.20;99.90;;;;;;5012702;28;20033;-69
2023/04/14 09:16:04;;;;;;;10.15;2.47;;;19.60;99.90;;;;;;5030716;28;20221;-68
2023/04/14 09:18:30;;;;;;;;;;;19.50;99.90;;;;;;5030797;28;20095;-67
2023/04/14 09:20:57;;;;;;;24.08;2.20;;;19.30;99.90;;;;;;5030638;28;19909;-69
2023/04/14 09:23:24;;;;;;;13.57;2.20;;;19.10;99.90;;;;;;5030423;28;20060;-68
2023/04/14 09:25:51;;;;;;;8.57;1.75;;;19.50;99.90;;;;;;5030301;28;20053;-69
2023/04/14 09:28:17;;;;;;;13.35;2.00;;;20.00;99.90;;;;;;5030494;28;20029;-66
2023/04/14 09:30:43;;;;;;;19.25;2.25;;;19.60;99.90;;;;;;5030213;28;20021;-69
2023/04/14 09:33:20;;;;;;;14.95;2.03;;;19.40;99.90;;;;;;5031663;28;20498;-67
2023/04/14 09:35:50;;;;;;;11.88;2.05;;;19.10;99.90;;;;;;5033816;28;20462;-67
2023/04/14 09:38:37;;;;;;;14.43;2.00;;;18.70;99.90;;;;;;5033923;28;20087;-68
2023/04/14 09:41:08;;;;;;;14.07;2.60;;;18.30;99.90;;;;;;5033803;28;20112;-69
2023/04/14 09:43:35;;;;;;;14.02;2.08;;;18.10;99.90;;;;;;5033839;28;20144;-69
2023/04/14 09:46:08;;;;;;;12.20;2.40;;;18.40;99.90;;;;;;5033341;28;20339;-68
2023/04/14 09:48:38;;;;;;;11.25;2.10;;;18.70;99.90;;;;;;5033361;28;20414;-67
2023/04/14 09:51:08;;;;;;;11.00;1.73;;;19.20;99.90;;;;;;5033556;28;20530;-68
2023/04/14 09:53:41;;;;;;;16.42;1.90;;;19.40;99.90;;;;;;5015730;28;20038;-67
2023/04/14 09:56:11;;;;;;;24.73;2.35;;;19.40;99.90;;;;;;5033348;28;20109;-65
2023/04/14 09:58:39;;;;;;;11.38;2.03;;;19.40;99.90;;;;;;5033293;28;20021;-67
2023/04/14 10:01:12;;;;;;;12.27;2.03;;;19.20;99.90;;;;;;5033167;28;20104;-67
2023/04/14 10:03:40;;;;;;;16.45;2.00;;;19.00;99.90;;;;;;5032898;28;20030;-66
2023/04/14 10:06:27;;;;;;;14.65;2.33;;;19.30;99.90;;;;;;5032842;28;20061;-67
2023/04/14 10:08:54;;;;;;;14.70;2.20;;;19.40;99.90;;;;;;5033034;28;20044;-67
2023/04/14 10:11:21;;;;;;;16.80;2.00;;;19.30;99.90;;;;;;5032659;28;20183;-69
2023/04/14 10:13:50;;;;;;;16.90;2.25;;;19.10;99.90;;;;;;5033018;28;20040;-68
2023/04/14 10:16:16;;;;;;;13.73;1.63;;;19.20;99.90;;;;;;5033211;28;20026;-68
2023/04/14 10:18:42;;;;;;;;;;;19.20;99.90;;;;;;5033056;28;20022;-68
2023/04/14 10:21:10;;;;;;;63.60;3.40;;;19.10;99.90;;;;;;5032904;28;20277;-68
2023/04/14 10:23:38;;;;;;;17.15;2.25;;;19.00;99.90;;;;;;5033026;28;20117;-68
2023/04/14 10:26:06;;;;;;;19.05;2.08;;;19.20;99.90;;;;;;5032569;28;20025;-68
2023/04/14 10:28:44;;;;;;;14.82;1.88;;;19.40;99.90;;;;;;5032542;28;20032;-68
2023/04/14 10:31:29;;;;;;;11.77;1.88;;;19.50;99.90;;;;;;5032484;28;20025;-68
2023/04/14 10:33:55;;;;;;;22.07;2.07;;;19.40;99.90;;;;;;5031845;28;20038;-68
2023/04/14 10:36:27;;;;;;;6.93;1.42;;;19.50;99.90;;;;;;5032490;28;20030;-67
2023/04/14 10:39:01;;;;;;;13.50;1.60;;;19.40;99.90;;;;;;5032881;28;20056;-69
2023/04/14 10:41:42;;;;;;;18.13;2.08;;;19.50;99.90;;;;;;5032115;28;20025;-68
2023/04/14 10:44:22;;;;;;;10.98;1.70;;;19.50;99.90;;;;;;5032202;28;20473;-68
2023/04/14 10:46:48;;;;;;;11.40;1.77;;;19.20;99.90;;;;;;5032655;28;20409;-68
2023/04/14 10:49:15;;;;;;;11.75;1.58;;;18.90;99.90;;;;;;5032714;28;20045;-68
2023/04/14 10:51:42;;;;;;;;;;;19.00;99.90;;;;;;5032325;28;20087;-68
2023/04/14 10:54:18;;;;;;;13.50;4.60;;;18.90;99.90;;;;;;5032644;28;19992;-68
2023/04/14 10:57:13;;;;;;;16.88;1.83;;;19.10;99.90;;;;;;5031907;28;20469;-67
2023/04/14 10:59:46;;;;;;;10.52;1.60;;;19.50;99.90;;;;;;5031999;28;20048;-69
2023/04/14 11:02:52;;;;;;;16.10;2.15;;;19.40;99.90;;;;;;5031840;28;20143;-68
2023/04/14 11:05:20;;;;;;;8.82;1.45;;;19.60;99.90;;;;;;4990310;28;20049;-71
2023/04/14 11:07:50;;;;;;;14.57;1.83;;;19.90;99.90;;;;;;4991011;28;20457;-69
2023/04/14 11:10:16;;;;;;;26.73;2.13;;;19.60;99.90;;;;;;4990946;28;20033;-69
2023/04/14 11:12:43;;;;;;;9.38;1.55;;;19.80;99.90;;;;;;4990326;28;20042;-68
2023/04/14 11:15:09;;;;;;;10.80;1.50;;;19.50;99.90;;;;;;4990130;28;20382;-68
2023/04/14 11:17:39;;;;;;;13.98;1.75;;;19.30;99.90;;;;;;4990238;28;20045;-68
2023/04/14 11:20:23;;;;;;;8.88;1.80;;;19.30;99.90;;;;;;4974065;28;20029;-68
2023/04/14 11:22:51;;;;;;;8.23;1.42;;;19.20;99.90;;;;;;4990405;28;20038;-68
2023/04/14 11:25:19;;;;;;;7.90;1.38;;;19.30;99.90;;;;;;4990579;28;20038;-69
2023/04/14 11:27:47;;;;;;;19.25;1.90;;;19.10;99.90;;;;;;4990726;28;20053;-69
2023/04/14 11:30:34;;;;;;;11.40;1.85;;;19.20;99.90;;;;;;4990733;28;20018;-69
2023/04/14 11:33:00;;;;;;;9.77;1.83;;;19.30;99.90;;;;;;4990484;28;20104;-70
2023/04/14 11:35:27;;;;;;;10.05;1.42;;;19.10;99.90;;;;;;4990838;28;20034;-69
2023/04/14 11:37:54;;;;;;;;;;;19.00;99.90;;;;;;4991097;28;20478;-70
2023/04/14 11:40:21;;;;;;;29.48;2.35;;;19.00;99.90;;;;;;4991440;28;19913;-70
2023/04/14 11:42:55;;;;;;;14.27;1.83;;;18.90;99.90;;;;;;5031635;28;20021;-69
2023/04/14 11:45:26;;;;;;;12.27;1.70;;;19.00;99.90;;;;;;5032049;28;20053;-68
2023/04/14 11:47:59;;;;;;;10.70;1.88;;;19.10;99.90;;;;;;5031912;28;20013;-70
2023/04/14 11:50:29;;;;;;;9.43;1.55;;;19.20;99.90;;;;;;5013852;28;20034;-70
2023/04/14 11:52:58;;;;;;;11.23;1.73;;;19.50;99.90;;;;;;5031526;28;20215;-68
2023/04/14 11:55:28;;;;;;;10.30;1.50;;;19.40;99.90;;;;;;5031356;28;20033;-68
2023/04/14 11:58:15;;;;;;;23.13;1.83;;;19.20;99.90;;;;;;5013029;28;20068;-68
2023/04/14 12:00:43;;;;;;;10.30;1.33;;;19.40;99.90;;;;;;5031123;28;20128;-68
2023/04/14 12:03:09;;;;;;;10.98;1.55;;;19.50;99.90;;;;;;5031005;28;20536;-68
2023/04/14 12:05:36;;;;;;;21.48;1.90;;;19.70;99.90;;;;;;5031564;28;20040;-69
2023/04/14 12:08:11;;;;;;;16.45;2.22;;;19.60;99.90;;;;;;5032145;28;20029;-69
2023/04/14 12:10:39;;;;;;;11.00;1.30;;;19.30;99.90;;;;;;5031419;28;20041;-68
2023/04/14 12:13:07;;;;;;;14.25;1.40;;;19.50;99.90;;;;;;5032241;28;20045;-69
2023/04/14 12:15:35;;;;;;;15.68;1.77;;;19.10;99.90;;;;;;5031738;28;20083;-70
2023/04/14 12:18:07;;;;;;;14.43;1.70;;;19.00;99.90;;;;;;5031529;28;20025;-69
2023/04/14 12:20:53;;;;;;;10.15;1.60;;;18.60;99.90;;;;;;5031610;28;20032;-69
2023/04/14 12:23:19;;;;;;;;;;;18.90;99.90;;;;;;5032354;28;20519;-70
2023/04/14 12:25:49;;;;;;;14.82;1.63;;;18.70;99.90;;;;;;5031788;28;20106;-69
2023/04/14 12:28:23;;;;;;;23.45;2.22;;;19.00;99.90;;;;;;5032201;28;20029;-69
2023/04/14 12:30:51;;;;;;;15.25;1.80;;;19.00;99.90;;;;;;5031915;28;20155;-68
2023/04/14 12:33:24;;;;;;;18.73;1.48;;;19.10;99.90;;;;;;5031309;28;20159;-68
2023/04/14 12:35:51;;;;;;;15.88;1.65;;;19.40;99.90;;;;;;5031762;28;20067;-68
2023/04/14 12:38:17;;;;;;;17.73;2.00;;;19.30;99.90;;;;;;5031726;28;20473;-70
2023/04/14 12:40:46;;;;;;;14.70;2.03;;;19.60;99.90;;;;;;5031385;28;20021;-69
2023/04/14 12:43:15;;;;;;;15.57;1.80;;;19.70;99.90;;;;;;5030017;28;20025;-69
2023/04/14 12:45:46;;;;;;;17.92;1.88;;;19.90;99.90;;;;;;5031317;28;20036;-69
2023/04/14 12:48:13;;;;;;;13.57;2.17;;;19.80;99.90;;;;;;5031592;28;20022;-70
2023/04/14 12:50:39;;;;;;;22.55;2.25;;;19.80;99.90;;;;;;5031932;28;20029;-70
2023/04/14 12:53:24;;;;;;;17.27;2.30;;;19.70;99.90;;;;;;5031836;28;20041;-70